sensor_id;sensor_type;location;lat;lon;timestamp;pressure;altitude;pressure_sealevel;temperature;humidity
43450;BME280;29041;42.266;23.110;2023-08-17T00:01:43;95761.28;;;21.35;100.00
43450;BME280;29041;42.266;23.110;2023-08-17T00:04:30;95744.50;;;21.37;100.00
43450;BME280;29041;42.266;23.110;2023-08-17T00:07:19;95762.06;;;21.32;100.00
43450;BME280;29041;42.266;23.110;2023-08-17T00:10:06;95748.00;;;21.59;100.00
43450;BME280;29041;42.266;23.110;2023-08-17T00:12:54;95751.50;;;21.56;100.00
43450;BME280;29041;42.266;23.110;2023-08-17T00:15:41;95754.56;;;21.87;98.35
43450;BME280;29041;42.266;23.110;2023-08-17T00:18:30;95758.91;;;21.55;100.00
43450;BME280;29041;42.266;23.110;2023-08-17T00:21:18;95757.72;;;21.67;99.67
43450;BME280;29041;42.266;23.110;2023-08-17T00:24:07;95763.25;;;21.02;100.00
43450;BME280;29041;42.266;23.110;2023-08-17T00:26:54;95769.88;;;21.19;100.00
43450;BME280;29041;42.266;23.110;2023-08-17T00:29:41;95754.69;;;21.22;100.00
43450;BME280;29041;42.266;23.110;2023-08-17T00:32:28;95758.59;;;21.17;100.00
43450;BME280;29041;42.266;23.110;2023-08-17T00:35:15;95768.72;;;20.95;100.00
43450;BME280;29041;42.266;23.110;2023-08-17T00:38:03;95755.00;;;20.44;100.00
43450;BME280;29041;42.266;23.110;2023-08-17T00:40:51;95753.41;;;20.36;100.00
43450;BME280;29041;42.266;23.110;2023-08-17T00:43:38;95755.00;;;20.55;100.00
43450;BME280;29041;42.266;23.110;2023-08-17T00:46:25;95757.31;;;20.46;100.00
43450;BME280;29041;42.266;23.110;2023-08-17T00:49:13;95764.81;;;20.82;100.00
43450;BME280;29041;42.266;23.110;2023-08-17T00:52:01;95770.97;;;20.57;100.00
43450;BME280;29041;42.266;23.110;2023-08-17T00:54:49;95759.69;;;20.51;100.00
43450;BME280;29041;42.266;23.110;2023-08-17T00:57:37;95753.50;;;20.72;100.00
43450;BME280;29041;42.266;23.110;2023-08-17T01:00:25;95756.56;;;20.60;100.00
43450;BME280;29041;42.266;23.110;2023-08-17T01:03:12;95772.16;;;20.59;100.00
43450;BME280;29041;42.266;23.110;2023-08-17T01:06:00;95765.50;;;20.42;100.00
43450;BME280;29041;42.266;23.110;2023-08-17T01:08:48;95773.69;;;20.46;100.00
43450;BME280;29041;42.266;23.110;2023-08-17T01:11:39;95760.81;;;20.28;100.00
43450;BME280;29041;42.266;23.110;2023-08-17T01:14:36;95765.47;;;20.35;100.00
43450;BME280;29041;42.266;23.110;2023-08-17T01:17:26;95769.34;;;20.27;100.00
43450;BME280;29041;42.266;23.110;2023-08-17T01:20:15;95765.03;;;20.22;100.00
43450;BME280;29041;42.266;23.110;2023-08-17T01:23:06;95751.03;;;20.13;100.00
43450;BME280;29041;42.266;23.110;2023-08-17T01:25:54;95760.75;;;20.10;100.00
43450;BME280;29041;42.266;23.110;2023-08-17T01:28:44;95763.47;;;20.10;100.00
43450;BME280;29041;42.266;23.110;2023-08-17T01:31:37;95756.09;;;20.22;100.00
43450;BME280;29041;42.266;23.110;2023-08-17T01:34:27;95748.66;;;20.15;100.00
43450;BME280;29041;42.266;23.110;2023-08-17T01:37:18;95753.38;;;20.18;100.00
43450;BME280;29041;42.266;23.110;2023-08-17T01:40:14;95754.47;;;20.03;100.00
43450;BME280;29041;42.266;23.110;2023-08-17T01:43:02;95756.84;;;20.11;100.00
43450;BME280;29041;42.266;23.110;2023-08-17T01:45:50;95762.84;;;20.86;100.00
43450;BME280;29041;42.266;23.110;2023-08-17T01:48:37;95760.09;;;20.68;100.00
43450;BME280;29041;42.266;23.110;2023-08-17T01:51:25;95753.72;;;20.09;100.00
43450;BME280;29041;42.266;23.110;2023-08-17T01:54:12;95752.47;;;19.92;100.00
43450;BME280;29041;42.266;23.110;2023-08-17T01:57:03;95749.88;;;20.25;100.00
43450;BME280;29041;42.266;23.110;2023-08-17T01:59:50;95749.47;;;20.12;100.00
43450;BME280;29041;42.266;23.110;2023-08-17T02:02:37;95750.56;;;19.96;100.00
43450;BME280;29041;42.266;23.110;2023-08-17T02:05:24;95741.25;;;20.05;100.00
43450;BME280;29041;42.266;23.110;2023-08-17T02:08:14;95745.19;;;20.15;100.00
43450;BME280;29041;42.266;23.110;2023-08-17T02:11:01;95751.03;;;20.17;100.00
43450;BME280;29041;42.266;23.110;2023-08-17T02:13:52;95747.97;;;20.43;100.00
43450;BME280;29041;42.266;23.110;2023-08-17T02:16:39;95751.78;;;20.13;100.00
43450;BME280;29041;42.266;23.110;2023-08-17T02:19:26;95756.88;;;20.29;100.00
43450;BME280;29041;42.266;23.110;2023-08-17T02:22:14;95748.97;;;19.85;100.00
43450;BME280;29041;42.266;23.110;2023-08-17T02:25:01;95748.09;;;19.73;100.00
43450;BME280;29041;42.266;23.110;2023-08-17T02:27:48;95758.13;;;19.55;100.00
43450;BME280;29041;42.266;23.110;2023-08-17T02:30:38;95748.81;;;19.59;100.00
43450;BME280;29041;42.266;23.110;2023-08-17T02:33:25;95751.91;;;19.54;100.00
43450;BME280;29041;42.266;23.110;2023-08-17T02:36:12;95755.84;;;19.64;100.00
43450;BME280;29041;42.266;23.110;2023-08-17T02:38:59;95745.94;;;19.34;100.00
43450;BME280;29041;42.266;23.110;2023-08-17T02:41:46;95750.13;;;19.21;100.00
43450;BME280;29041;42.266;23.110;2023-08-17T02:44:35;95735.66;;;19.09;100.00
43450;BME280;29041;42.266;23.110;2023-08-17T02:47:23;95738.41;;;19.13;100.00
43450;BME280;29041;42.266;23.110;2023-08-17T02:50:10;95758.44;;;19.42;100.00
43450;BME280;29041;42.266;23.110;2023-08-17T02:52:57;95748.25;;;19.32;100.00
43450;BME280;29041;42.266;23.110;2023-08-17T02:55:45;95753.44;;;19.55;100.00
43450;BME280;29041;42.266;23.110;2023-08-17T02:58:32;95736.41;;;19.69;100.00
43450;BME280;29041;42.266;23.110;2023-08-17T03:01:22;95745.25;;;19.52;100.00
43450;BME280;29041;42.266;23.110;2023-08-17T03:04:11;95750.63;;;19.37;100.00
43450;BME280;29041;42.266;23.110;2023-08-17T03:06:58;95748.91;;;19.14;100.00
43450;BME280;29041;42.266;23.110;2023-08-17T03:09:45;95746.09;;;19.03;100.00
43450;BME280;29041;42.266;23.110;2023-08-17T03:12:32;95741.28;;;19.38;100.00
43450;BME280;29041;42.266;23.110;2023-08-17T03:15:19;95750.13;;;19.17;100.00
43450;BME280;29041;42.266;23.110;2023-08-17T03:18:07;95745.41;;;19.80;100.00
43450;BME280;29041;42.266;23.110;2023-08-17T03:20:55;95745.72;;;19.64;100.00
43450;BME280;29041;42.266;23.110;2023-08-17T03:23:44;95746.25;;;19.25;100.00
43450;BME280;29041;42.266;23.110;2023-08-17T03:26:31;95744.16;;;19.67;100.00
43450;BME280;29041;42.266;23.110;2023-08-17T03:29:18;95745.13;;;19.30;100.00
43450;BME280;29041;42.266;23.110;2023-08-17T03:32:06;95746.19;;;19.14;100.00
43450;BME280;29041;42.266;23.110;2023-08-17T03:34:53;95745.59;;;19.43;100.00
43450;BME280;29041;42.266;23.110;2023-08-17T03:37:41;95734.06;;;19.64;100.00
43450;BME280;29041;42.266;23.110;2023-08-17T03:40:28;95749.38;;;19.27;100.00
43450;BME280;29041;42.266;23.110;2023-08-17T03:43:18;95755.75;;;18.94;100.00
43450;BME280;29041;42.266;23.110;2023-08-17T03:46:08;95757.00;;;19.03;100.00
43450;BME280;29041;42.266;23.110;2023-08-17T03:48:55;95761.09;;;18.86;100.00
43450;BME280;29041;42.266;23.110;2023-08-17T03:51:42;95761.00;;;19.17;100.00
43450;BME280;29041;42.266;23.110;2023-08-17T03:54:31;95769.81;;;19.62;100.00
43450;BME280;29041;42.266;23.110;2023-08-17T03:57:18;95763.81;;;19.31;100.00
43450;BME280;29041;42.266;23.110;2023-08-17T04:00:06;95773.50;;;19.88;99.02
43450;BME280;29041;42.266;23.110;2023-08-17T04:02:55;95762.31;;;19.41;100.00
43450;BME280;29041;42.266;23.110;2023-08-17T04:05:43;95768.38;;;19.16;100.00
43450;BME280;29041;42.266;23.110;2023-08-17T04:08:30;95761.88;;;19.32;100.00
43450;BME280;29041;42.266;23.110;2023-08-17T04:11:18;95782.78;;;19.21;100.00
43450;BME280;29041;42.266;23.110;2023-08-17T04:14:05;95778.19;;;19.32;100.00
43450;BME280;29041;42.266;23.110;2023-08-17T04:16:54;95787.16;;;18.87;100.00
43450;BME280;29041;42.266;23.110;2023-08-17T04:19:42;95782.59;;;18.99;100.00
43450;BME280;29041;42.266;23.110;2023-08-17T04:22:29;95784.34;;;19.22;100.00
43450;BME280;29041;42.266;23.110;2023-08-17T04:25:16;95769.41;;;19.53;100.00
43450;BME280;29041;42.266;23.110;2023-08-17T04:28:05;95781.91;;;19.61;98.38
43450;BME280;29041;42.266;23.110;2023-08-17T04:30:52;95787.94;;;20.00;95.76
43450;BME280;29041;42.266;23.110;2023-08-17T04:33:42;95785.63;;;20.09;95.06
43450;BME280;29041;42.266;23.110;2023-08-17T04:36:29;95785.94;;;19.86;96.34
43450;BME280;29041;42.266;23.110;2023-08-17T04:39:16;95787.22;;;20.17;96.33
43450;BME280;29041;42.266;23.110;2023-08-17T04:42:04;95794.09;;;19.86;94.97
43450;BME280;29041;42.266;23.110;2023-08-17T04:44:52;95782.34;;;19.78;96.80
43450;BME280;29041;42.266;23.110;2023-08-17T04:47:39;95780.41;;;19.75;97.43
43450;BME280;29041;42.266;23.110;2023-08-17T04:50:27;95783.75;;;20.20;95.72
43450;BME280;29041;42.266;23.110;2023-08-17T04:53:14;95786.13;;;20.33;93.13
43450;BME280;29041;42.266;23.110;2023-08-17T04:56:02;95786.81;;;20.11;96.30
43450;BME280;29041;42.266;23.110;2023-08-17T04:58:49;95786.53;;;20.35;94.17
43450;BME280;29041;42.266;23.110;2023-08-17T05:01:38;95792.09;;;20.89;90.55
43450;BME280;29041;42.266;23.110;2023-08-17T05:04:25;95783.84;;;20.60;92.26
43450;BME280;29041;42.266;23.110;2023-08-17T05:07:12;95795.53;;;20.57;92.23
43450;BME280;29041;42.266;23.110;2023-08-17T05:10:00;95803.72;;;20.64;92.08
43450;BME280;29041;42.266;23.110;2023-08-17T05:12:47;95798.38;;;21.15;89.25
43450;BME280;29041;42.266;23.110;2023-08-17T05:15:34;95802.25;;;21.24;87.84
43450;BME280;29041;42.266;23.110;2023-08-17T05:18:23;95809.63;;;21.56;87.11
43450;BME280;29041;42.266;23.110;2023-08-17T05:21:10;95796.81;;;21.06;89.05
43450;BME280;29041;42.266;23.110;2023-08-17T05:23:57;95803.03;;;21.11;89.57
43450;BME280;29041;42.266;23.110;2023-08-17T05:26:44;95786.66;;;21.25;89.21
43450;BME280;29041;42.266;23.110;2023-08-17T05:29:31;95798.34;;;21.58;86.75
43450;BME280;29041;42.266;23.110;2023-08-17T05:32:18;95790.09;;;21.80;86.00
43450;BME280;29041;42.266;23.110;2023-08-17T05:35:07;95791.50;;;22.24;83.91
43450;BME280;29041;42.266;23.110;2023-08-17T05:37:55;95785.72;;;22.04;84.47
43450;BME280;29041;42.266;23.110;2023-08-17T05:40:42;95792.72;;;22.16;83.71
43450;BME280;29041;42.266;23.110;2023-08-17T05:43:29;95798.16;;;22.23;83.55
43450;BME280;29041;42.266;23.110;2023-08-17T05:46:16;95798.47;;;22.47;82.67
43450;BME280;29041;42.266;23.110;2023-08-17T05:49:04;95787.34;;;22.76;81.30
43450;BME280;29041;42.266;23.110;2023-08-17T05:51:52;95797.13;;;22.77;81.46
43450;BME280;29041;42.266;23.110;2023-08-17T05:54:39;95798.69;;;22.78;82.24
43450;BME280;29041;42.266;23.110;2023-08-17T05:57:26;95796.69;;;22.82;81.16
43450;BME280;29041;42.266;23.110;2023-08-17T06:00:14;95785.00;;;22.78;83.23
43450;BME280;29041;42.266;23.110;2023-08-17T06:03:01;95791.06;;;23.04;80.12
43450;BME280;29041;42.266;23.110;2023-08-17T06:05:52;95788.00;;;22.91;79.72
43450;BME280;29041;42.266;23.110;2023-08-17T06:08:41;95794.75;;;23.32;77.63
43450;BME280;29041;42.266;23.110;2023-08-17T06:11:28;95786.66;;;23.63;75.25
43450;BME280;29041;42.266;23.110;2023-08-17T06:14:15;95797.25;;;23.99;69.99
43450;BME280;29041;42.266;23.110;2023-08-17T06:17:02;95795.75;;;23.94;69.67
43450;BME280;29041;42.266;23.110;2023-08-17T06:19:49;95791.22;;;23.76;70.24
43450;BME280;29041;42.266;23.110;2023-08-17T06:22:36;95793.38;;;23.92;71.53
43450;BME280;29041;42.266;23.110;2023-08-17T06:25:25;95802.56;;;23.79;69.67
43450;BME280;29041;42.266;23.110;2023-08-17T06:28:15;95785.13;;;24.31;68.52
43450;BME280;29041;42.266;23.110;2023-08-17T06:31:02;95780.78;;;24.33;68.20
43450;BME280;29041;42.266;23.110;2023-08-17T06:33:49;95785.53;;;24.60;66.91
43450;BME280;29041;42.266;23.110;2023-08-17T06:36:39;95795.34;;;24.30;67.71
43450;BME280;29041;42.266;23.110;2023-08-17T06:39:27;95791.63;;;24.44;68.74
43450;BME280;29041;42.266;23.110;2023-08-17T06:42:18;95787.09;;;25.40;66.25
43450;BME280;29041;42.266;23.110;2023-08-17T06:45:09;95788.13;;;24.98;65.19
43450;BME280;29041;42.266;23.110;2023-08-17T06:47:56;95786.34;;;25.39;64.78
43450;BME280;29041;42.266;23.110;2023-08-17T06:50:43;95785.22;;;25.09;63.61
43450;BME280;29041;42.266;23.110;2023-08-17T06:53:31;95788.16;;;25.22;63.62
43450;BME280;29041;42.266;23.110;2023-08-17T06:56:18;95784.59;;;25.49;63.59
43450;BME280;29041;42.266;23.110;2023-08-17T06:59:07;95773.97;;;25.71;60.94
43450;BME280;29041;42.266;23.110;2023-08-17T07:01:54;95784.69;;;26.09;61.69
43450;BME280;29041;42.266;23.110;2023-08-17T07:04:41;95770.41;;;26.35;59.21
43450;BME280;29041;42.266;23.110;2023-08-17T07:07:28;95778.09;;;26.43;59.66
43450;BME280;29041;42.266;23.110;2023-08-17T07:10:17;95778.00;;;26.84;58.93
43450;BME280;29041;42.266;23.110;2023-08-17T07:13:04;95771.91;;;26.76;57.81
43450;BME280;29041;42.266;23.110;2023-08-17T07:15:53;95774.22;;;26.78;57.31
43450;BME280;29041;42.266;23.110;2023-08-17T07:18:40;95770.00;;;27.22;55.76
43450;BME280;29041;42.266;23.110;2023-08-17T07:21:28;95766.91;;;27.04;56.08
43450;BME280;29041;42.266;23.110;2023-08-17T07:24:16;95764.81;;;27.41;56.71
43450;BME280;29041;42.266;23.110;2023-08-17T07:27:03;95751.19;;;29.16;51.81
43450;BME280;29041;42.266;23.110;2023-08-17T07:29:50;95741.53;;;32.38;42.60
43450;BME280;29041;42.266;23.110;2023-08-17T07:32:39;95744.69;;;33.95;39.66
43450;BME280;29041;42.266;23.110;2023-08-17T07:35:26;95754.50;;;34.50;36.29
43450;BME280;29041;42.266;23.110;2023-08-17T07:38:14;95744.75;;;34.90;34.12
43450;BME280;29041;42.266;23.110;2023-08-17T07:41:01;95750.25;;;37.37;30.16
43450;BME280;29041;42.266;23.110;2023-08-17T07:43:48;95740.09;;;38.45;28.82
43450;BME280;29041;42.266;23.110;2023-08-17T07:46:35;95742.88;;;36.32;31.98
43450;BME280;29041;42.266;23.110;2023-08-17T07:49:24;95743.44;;;37.55;28.54
43450;BME280;29041;42.266;23.110;2023-08-17T07:52:11;95746.69;;;36.34;30.79
43450;BME280;29041;42.266;23.110;2023-08-17T07:55:10;95727.66;;;37.03;29.51
43450;BME280;29041;42.266;23.110;2023-08-17T07:57:57;95733.59;;;37.71;28.25
43450;BME280;29041;42.266;23.110;2023-08-17T08:00:44;95735.50;;;36.98;29.60
43450;BME280;29041;42.266;23.110;2023-08-17T08:03:31;95732.88;;;37.27;28.22
43450;BME280;29041;42.266;23.110;2023-08-17T08:06:20;95723.09;;;37.54;28.47
43450;BME280;29041;42.266;23.110;2023-08-17T08:09:07;95715.38;;;36.89;29.92
43450;BME280;29041;42.266;23.110;2023-08-17T08:11:54;95714.81;;;38.11;28.57
43450;BME280;29041;42.266;23.110;2023-08-17T08:14:41;95697.22;;;37.99;27.55
43450;BME280;29041;42.266;23.110;2023-08-17T08:17:28;95713.22;;;39.24;26.26
43450;BME280;29041;42.266;23.110;2023-08-17T08:20:15;95703.38;;;40.06;24.95
43450;BME280;29041;42.266;23.110;2023-08-17T08:23:04;95711.03;;;36.88;29.40
43450;BME280;29041;42.266;23.110;2023-08-17T08:25:51;95704.09;;;37.21;29.28
43450;BME280;29041;42.266;23.110;2023-08-17T08:28:39;95702.84;;;37.22;29.06
43450;BME280;29041;42.266;23.110;2023-08-17T08:31:26;95703.06;;;39.03;25.81
43450;BME280;29041;42.266;23.110;2023-08-17T08:34:13;95697.34;;;40.27;24.63
43450;BME280;29041;42.266;23.110;2023-08-17T08:37:00;95708.28;;;39.47;25.49
43450;BME280;29041;42.266;23.110;2023-08-17T08:39:49;95700.09;;;39.49;25.20
43450;BME280;29041;42.266;23.110;2023-08-17T08:42:37;95697.88;;;35.51;30.86
43450;BME280;29041;42.266;23.110;2023-08-17T08:45:25;95697.44;;;35.17;31.43
43450;BME280;29041;42.266;23.110;2023-08-17T08:48:15;95687.25;;;36.66;29.85
43450;BME280;29041;42.266;23.110;2023-08-17T08:51:07;95690.13;;;38.44;26.80
43450;BME280;29041;42.266;23.110;2023-08-17T08:54:00;95694.19;;;37.25;28.63
43450;BME280;29041;42.266;23.110;2023-08-17T08:56:55;95688.56;;;38.65;26.45
43450;BME280;29041;42.266;23.110;2023-08-17T08:59:45;95689.94;;;37.41;27.39
43450;BME280;29041;42.266;23.110;2023-08-17T09:02:34;95683.75;;;37.26;27.92
43450;BME280;29041;42.266;23.110;2023-08-17T09:05:22;95682.47;;;38.61;25.78
43450;BME280;29041;42.266;23.110;2023-08-17T09:08:10;95683.22;;;36.73;28.21
43450;BME280;29041;42.266;23.110;2023-08-17T09:10:59;95665.19;;;38.34;26.14
43450;BME280;29041;42.266;23.110;2023-08-17T09:13:47;95672.59;;;36.82;28.29
43450;BME280;29041;42.266;23.110;2023-08-17T09:16:34;95663.63;;;37.88;26.35
43450;BME280;29041;42.266;23.110;2023-08-17T09:19:21;95662.63;;;38.42;25.91
43450;BME280;29041;42.266;23.110;2023-08-17T09:22:09;95654.81;;;36.42;27.26
43450;BME280;29041;42.266;23.110;2023-08-17T09:24:56;95657.97;;;36.56;27.15
43450;BME280;29041;42.266;23.110;2023-08-17T09:27:43;95653.75;;;37.26;26.31
43450;BME280;29041;42.266;23.110;2023-08-17T09:30:31;95647.53;;;36.99;27.38
43450;BME280;29041;42.266;23.110;2023-08-17T09:33:19;95644.41;;;37.41;26.44
43450;BME280;29041;42.266;23.110;2023-08-17T09:36:06;95644.72;;;36.99;26.62
43450;BME280;29041;42.266;23.110;2023-08-17T09:38:53;95634.81;;;37.87;25.93
43450;BME280;29041;42.266;23.110;2023-08-17T09:41:42;95621.34;;;37.97;25.53
43450;BME280;29041;42.266;23.110;2023-08-17T09:44:29;95625.16;;;36.56;27.71
43450;BME280;29041;42.266;23.110;2023-08-17T09:47:18;95626.69;;;36.57;27.38
43450;BME280;29041;42.266;23.110;2023-08-17T09:50:07;95626.56;;;34.88;29.89
43450;BME280;29041;42.266;23.110;2023-08-17T09:52:55;95616.19;;;33.72;32.14
43450;BME280;29041;42.266;23.110;2023-08-17T09:55:42;95614.19;;;33.73;32.07
43450;BME280;29041;42.266;23.110;2023-08-17T09:58:30;95614.97;;;33.58;32.46
43450;BME280;29041;42.266;23.110;2023-08-17T10:01:17;95619.16;;;33.14;32.32
43450;BME280;29041;42.266;23.110;2023-08-17T10:04:07;95616.38;;;33.53;32.96
43450;BME280;29041;42.266;23.110;2023-08-17T10:06:58;95614.56;;;33.50;32.76
43450;BME280;29041;42.266;23.110;2023-08-17T10:09:49;95613.44;;;33.18;32.58
43450;BME280;29041;42.266;23.110;2023-08-17T10:12:47;95611.19;;;34.21;32.38
43450;BME280;29041;42.266;23.110;2023-08-17T10:15:38;95598.06;;;33.62;32.21
43450;BME280;29041;42.266;23.110;2023-08-17T10:18:32;95601.31;;;33.60;33.29
43450;BME280;29041;42.266;23.110;2023-08-17T10:21:27;95597.94;;;33.71;32.84
43450;BME280;29041;42.266;23.110;2023-08-17T10:24:16;95600.69;;;33.95;31.75
43450;BME280;29041;42.266;23.110;2023-08-17T10:27:05;95594.78;;;33.33;31.45
43450;BME280;29041;42.266;23.110;2023-08-17T10:29:54;95587.22;;;33.49;31.71
43450;BME280;29041;42.266;23.110;2023-08-17T10:32:41;95593.72;;;33.76;32.43
43450;BME280;29041;42.266;23.110;2023-08-17T10:35:35;95585.81;;;33.29;33.89
43450;BME280;29041;42.266;23.110;2023-08-17T10:38:24;95591.13;;;33.42;31.90
43450;BME280;29041;42.266;23.110;2023-08-17T10:41:12;95578.50;;;33.17;32.49
43450;BME280;29041;42.266;23.110;2023-08-17T10:43:59;95578.19;;;33.69;31.27
43450;BME280;29041;42.266;23.110;2023-08-17T10:46:46;95567.63;;;32.89;32.49
43450;BME280;29041;42.266;23.110;2023-08-17T10:49:34;95578.84;;;33.34;31.49
43450;BME280;29041;42.266;23.110;2023-08-17T10:52:26;95578.88;;;33.79;31.17
43450;BME280;29041;42.266;23.110;2023-08-17T10:55:15;95568.03;;;33.66;31.71
43450;BME280;29041;42.266;23.110;2023-08-17T10:58:02;95557.84;;;33.78;30.55
43450;BME280;29041;42.266;23.110;2023-08-17T11:00:54;95581.22;;;33.26;30.72
43450;BME280;29041;42.266;23.110;2023-08-17T11:03:42;95567.72;;;33.79;31.53
43450;BME280;29041;42.266;23.110;2023-08-17T11:06:30;95565.72;;;33.64;30.89
43450;BME280;29041;42.266;23.110;2023-08-17T11:09:17;95569.91;;;32.90;31.66
43450;BME280;29041;42.266;23.110;2023-08-17T11:12:24;95540.84;;;33.76;30.66
43450;BME280;29041;42.266;23.110;2023-08-17T11:15:12;95545.22;;;34.12;30.81
43450;BME280;29041;42.266;23.110;2023-08-17T11:17:59;95542.81;;;33.55;30.68
43450;BME280;29041;42.266;23.110;2023-08-17T11:20:47;95543.56;;;33.85;31.04
43450;BME280;29041;42.266;23.110;2023-08-17T11:23:43;95540.81;;;34.06;29.90
43450;BME280;29041;42.266;23.110;2023-08-17T11:26:31;95544.50;;;33.67;29.97
43450;BME280;29041;42.266;23.110;2023-08-17T11:29:20;95548.16;;;33.73;30.55
43450;BME280;29041;42.266;23.110;2023-08-17T11:32:09;95558.44;;;33.37;30.30
43450;BME280;29041;42.266;23.110;2023-08-17T11:34:57;95551.25;;;33.06;30.30
43450;BME280;29041;42.266;23.110;2023-08-17T11:37:44;95545.31;;;32.74;31.27
43450;BME280;29041;42.266;23.110;2023-08-17T11:40:32;95536.50;;;33.15;30.72
43450;BME280;29041;42.266;23.110;2023-08-17T11:43:21;95539.91;;;33.79;30.61
43450;BME280;29041;42.266;23.110;2023-08-17T11:46:09;95555.22;;;33.29;30.98
43450;BME280;29041;42.266;23.110;2023-08-17T11:48:59;95514.28;;;33.60;31.10
43450;BME280;29041;42.266;23.110;2023-08-17T11:51:46;95541.34;;;33.74;30.49
43450;BME280;29041;42.266;23.110;2023-08-17T11:54:33;95524.63;;;33.29;31.28
43450;BME280;29041;42.266;23.110;2023-08-17T11:57:20;95530.13;;;33.38;31.20
43450;BME280;29041;42.266;23.110;2023-08-17T12:00:08;95526.66;;;33.14;31.38
43450;BME280;29041;42.266;23.110;2023-08-17T12:02:58;95520.78;;;33.12;31.78
43450;BME280;29041;42.266;23.110;2023-08-17T12:05:45;95532.34;;;33.34;30.44
43450;BME280;29041;42.266;23.110;2023-08-17T12:08:32;95515.03;;;33.15;31.94
43450;BME280;29041;42.266;23.110;2023-08-17T12:11:23;95538.78;;;33.01;31.87
43450;BME280;29041;42.266;23.110;2023-08-17T12:14:15;95528.41;;;32.87;32.31
43450;BME280;29041;42.266;23.110;2023-08-17T12:17:03;95530.25;;;32.90;31.99
43450;BME280;29041;42.266;23.110;2023-08-17T12:19:55;95525.84;;;32.98;32.04
43450;BME280;29041;42.266;23.110;2023-08-17T12:22:42;95514.47;;;33.26;32.04
43450;BME280;29041;42.266;23.110;2023-08-17T12:25:29;95523.28;;;33.10;30.58
43450;BME280;29041;42.266;23.110;2023-08-17T12:28:17;95510.69;;;32.99;31.38
43450;BME280;29041;42.266;23.110;2023-08-17T12:31:04;95496.28;;;32.86;31.77
43450;BME280;29041;42.266;23.110;2023-08-17T12:33:51;95509.03;;;32.78;31.18
43450;BME280;29041;42.266;23.110;2023-08-17T12:36:42;95480.41;;;33.01;31.25
43450;BME280;29041;42.266;23.110;2023-08-17T12:39:30;95495.16;;;33.08;30.59
43450;BME280;29041;42.266;23.110;2023-08-17T12:42:17;95507.44;;;33.01;30.78
43450;BME280;29041;42.266;23.110;2023-08-17T12:45:04;95488.56;;;32.90;30.78
43450;BME280;29041;42.266;23.110;2023-08-17T12:47:52;95503.03;;;32.70;30.20
43450;BME280;29041;42.266;23.110;2023-08-17T12:50:39;95495.00;;;32.72;30.00
43450;BME280;29041;42.266;23.110;2023-08-17T12:53:28;95499.47;;;32.94;29.80
43450;BME280;29041;42.266;23.110;2023-08-17T12:56:15;95506.41;;;32.74;29.87
43450;BME280;29041;42.266;23.110;2023-08-17T12:59:03;95485.34;;;32.43;30.51
43450;BME280;29041;42.266;23.110;2023-08-17T13:01:50;95495.13;;;32.53;30.89
43450;BME280;29041;42.266;23.110;2023-08-17T13:04:37;95496.69;;;32.54;30.21
43450;BME280;29041;42.266;23.110;2023-08-17T13:07:24;95497.63;;;32.27;30.32
43450;BME280;29041;42.266;23.110;2023-08-17T13:10:13;95501.84;;;32.47;30.49
43450;BME280;29041;42.266;23.110;2023-08-17T13:13:00;95500.75;;;32.20;30.63
43450;BME280;29041;42.266;23.110;2023-08-17T13:15:47;95488.94;;;32.34;30.89
43450;BME280;29041;42.266;23.110;2023-08-17T13:18:35;95482.50;;;32.28;30.37
43450;BME280;29041;42.266;23.110;2023-08-17T13:21:22;95495.38;;;32.16;30.91
43450;BME280;29041;42.266;23.110;2023-08-17T13:24:29;95515.63;;;32.07;30.98
43450;BME280;29041;42.266;23.110;2023-08-17T13:27:18;95511.69;;;31.90;30.93
43450;BME280;29041;42.266;23.110;2023-08-17T13:30:06;95473.91;;;31.92;31.55
43450;BME280;29041;42.266;23.110;2023-08-17T13:32:53;95494.47;;;31.86;30.17
43450;BME280;29041;42.266;23.110;2023-08-17T13:35:40;95483.59;;;31.97;30.54
43450;BME280;29041;42.266;23.110;2023-08-17T13:38:28;95493.97;;;31.87;30.97
43450;BME280;29041;42.266;23.110;2023-08-17T13:41:15;95485.00;;;31.92;31.14
43450;BME280;29041;42.266;23.110;2023-08-17T13:44:04;95490.84;;;31.94;31.71
43450;BME280;29041;42.266;23.110;2023-08-17T13:46:53;95481.16;;;31.90;31.36
43450;BME280;29041;42.266;23.110;2023-08-17T13:49:40;95490.66;;;32.07;31.63
43450;BME280;29041;42.266;23.110;2023-08-17T13:52:27;95500.38;;;31.60;32.00
43450;BME280;29041;42.266;23.110;2023-08-17T13:55:14;95486.00;;;31.80;31.48
43450;BME280;29041;42.266;23.110;2023-08-17T13:58:01;95503.34;;;31.99;31.71
43450;BME280;29041;42.266;23.110;2023-08-17T14:00:50;95465.84;;;31.70;31.47
43450;BME280;29041;42.266;23.110;2023-08-17T14:03:37;95487.06;;;31.83;31.87
43450;BME280;29041;42.266;23.110;2023-08-17T14:06:25;95492.06;;;31.69;32.12
43450;BME280;29041;42.266;23.110;2023-08-17T14:09:12;95488.34;;;31.63;33.00
43450;BME280;29041;42.266;23.110;2023-08-17T14:11:59;95495.38;;;31.83;32.46
43450;BME280;29041;42.266;23.110;2023-08-17T14:14:47;95491.41;;;31.74;32.00
43450;BME280;29041;42.266;23.110;2023-08-17T14:17:35;95493.13;;;31.62;31.34
43450;BME280;29041;42.266;23.110;2023-08-17T14:20:23;95483.16;;;31.56;32.16
43450;BME280;29041;42.266;23.110;2023-08-17T14:23:10;95476.06;;;31.55;32.21
43450;BME280;29041;42.266;23.110;2023-08-17T14:25:57;95469.69;;;31.63;31.83
43450;BME280;29041;42.266;23.110;2023-08-17T14:28:44;95487.28;;;31.60;30.90
43450;BME280;29041;42.266;23.110;2023-08-17T14:31:32;95490.47;;;31.77;29.86
43450;BME280;29041;42.266;23.110;2023-08-17T14:34:20;95479.47;;;31.49;29.72
43450;BME280;29041;42.266;23.110;2023-08-17T14:37:07;95504.88;;;31.67;30.33